sensor_id;sensor_type;location;lat;lon;timestamp;P1;durP1;ratioP1;P2;durP2;ratioP2
45642;SDS011;31358;46.008;11.144;2023-06-10T00:00:34;13.00;;;9.45;;
45642;SDS011;31358;46.008;11.144;2023-06-10T00:02:59;14.85;;;10.73;;
45642;SDS011;31358;46.008;11.144;2023-06-10T00:05:25;13.93;;;10.18;;
45642;SDS011;31358;46.008;11.144;2023-06-10T00:07:54;17.00;;;10.13;;
45642;SDS011;31358;46.008;11.144;2023-06-10T00:10:21;11.05;;;8.93;;
45642;SDS011;31358;46.008;11.144;2023-06-10T00:12:47;12.27;;;8.88;;
45642;SDS011;31358;46.008;11.144;2023-06-10T00:15:12;12.18;;;9.35;;
45642;SDS011;31358;46.008;11.144;2023-06-10T00:17:38;13.85;;;9.30;;
45642;SDS011;31358;46.008;11.144;2023-06-10T00:20:05;11.20;;;8.02;;
45642;SDS011;31358;46.008;11.144;2023-06-10T00:22:36;11.70;;;8.88;;
45642;SDS011;31358;46.008;11.144;2023-06-10T00:25:04;11.52;;;7.75;;
45642;SDS011;31358;46.008;11.144;2023-06-10T00:27:31;12.50;;;9.80;;
45642;SDS011;31358;46.008;11.144;2023-06-10T00:30:00;15.93;;;9.98;;
45642;SDS011;31358;46.008;11.144;2023-06-10T00:32:31;13.25;;;9.75;;
45642;SDS011;31358;46.008;11.144;2023-06-10T00:34:58;11.52;;;9.27;;
45642;SDS011;31358;46.008;11.144;2023-06-10T00:37:23;13.23;;;9.65;;
45642;SDS011;31358;46.008;11.144;2023-06-10T00:39:49;13.45;;;9.75;;
45642;SDS011;31358;46.008;11.144;2023-06-10T00:42:15;17.40;;;10.45;;
45642;SDS011;31358;46.008;11.144;2023-06-10T00:44:41;16.25;;;10.35;;
45642;SDS011;31358;46.008;11.144;2023-06-10T00:47:06;13.50;;;10.85;;
45642;SDS011;31358;46.008;11.144;2023-06-10T00:49:33;13.00;;;10.88;;
45642;SDS011;31358;46.008;11.144;2023-06-10T00:51:59;16.42;;;10.48;;
45642;SDS011;31358;46.008;11.144;2023-06-10T00:54:27;12.57;;;10.65;;
45642;SDS011;31358;46.008;11.144;2023-06-10T00:56:53;15.65;;;10.93;;
45642;SDS011;31358;46.008;11.144;2023-06-10T00:59:20;11.63;;;9.82;;
45642;SDS011;31358;46.008;11.144;2023-06-10T01:01:46;15.25;;;10.98;;
45642;SDS011;31358;46.008;11.144;2023-06-10T01:04:14;12.57;;;9.80;;
45642;SDS011;31358;46.008;11.144;2023-06-10T01:06:47;14.25;;;10.45;;
45642;SDS011;31358;46.008;11.144;2023-06-10T01:09:54;13.15;;;9.70;;
45642;SDS011;31358;46.008;11.144;2023-06-10T01:15:17;12.70;;;9.73;;
45642;SDS011;31358;46.008;11.144;2023-06-10T01:17:56;14.20;;;10.60;;
45642;SDS011;31358;46.008;11.144;2023-06-10T01:20:24;13.82;;;9.57;;
45642;SDS011;31358;46.008;11.144;2023-06-10T01:22:53;16.45;;;9.23;;
45642;SDS011;31358;46.008;11.144;2023-06-10T01:25:23;14.10;;;10.10;;
45642;SDS011;31358;46.008;11.144;2023-06-10T01:28:36;13.77;;;10.20;;
45642;SDS011;31358;46.008;11.144;2023-06-10T01:34:16;12.27;;;9.05;;
45642;SDS011;31358;46.008;11.144;2023-06-10T01:36:47;13.95;;;8.95;;
45642;SDS011;31358;46.008;11.144;2023-06-10T01:39:17;11.20;;;9.13;;
45642;SDS011;31358;46.008;11.144;2023-06-10T01:41:47;12.23;;;8.25;;
45642;SDS011;31358;46.008;11.144;2023-06-10T01:44:17;13.30;;;9.45;;
45642;SDS011;31358;46.008;11.144;2023-06-10T01:46:44;13.00;;;9.07;;
45642;SDS011;31358;46.008;11.144;2023-06-10T01:49:10;10.35;;;8.07;;
45642;SDS011;31358;46.008;11.144;2023-06-10T01:51:35;12.02;;;8.55;;
45642;SDS011;31358;46.008;11.144;2023-06-10T01:54:01;13.77;;;10.25;;
45642;SDS011;31358;46.008;11.144;2023-06-10T01:56:27;10.98;;;8.27;;
45642;SDS011;31358;46.008;11.144;2023-06-10T01:58:52;12.68;;;8.35;;
45642;SDS011;31358;46.008;11.144;2023-06-10T02:01:23;13.20;;;9.40;;
45642;SDS011;31358;46.008;11.144;2023-06-10T02:03:52;11.55;;;7.60;;
45642;SDS011;31358;46.008;11.144;2023-06-10T02:06:18;10.55;;;7.85;;
45642;SDS011;31358;46.008;11.144;2023-06-10T02:08:44;12.13;;;8.23;;
45642;SDS011;31358;46.008;11.144;2023-06-10T02:11:10;11.25;;;8.65;;
45642;SDS011;31358;46.008;11.144;2023-06-10T02:13:35;11.77;;;8.75;;
45642;SDS011;31358;46.008;11.144;2023-06-10T02:16:01;10.98;;;8.30;;
45642;SDS011;31358;46.008;11.144;2023-06-10T02:18:27;14.40;;;8.68;;
45642;SDS011;31358;46.008;11.144;2023-06-10T02:20:53;10.88;;;8.30;;
45642;SDS011;31358;46.008;11.144;2023-06-10T02:23:19;15.30;;;11.63;;
45642;SDS011;31358;46.008;11.144;2023-06-10T02:25:44;10.70;;;8.10;;
45642;SDS011;31358;46.008;11.144;2023-06-10T02:28:12;10.90;;;9.20;;
45642;SDS011;31358;46.008;11.144;2023-06-10T02:30:39;11.52;;;8.60;;
45642;SDS011;31358;46.008;11.144;2023-06-10T02:33:06;14.85;;;9.48;;
45642;SDS011;31358;46.008;11.144;2023-06-10T02:35:35;11.70;;;8.52;;
45642;SDS011;31358;46.008;11.144;2023-06-10T02:38:01;10.13;;;7.70;;
45642;SDS011;31358;46.008;11.144;2023-06-10T02:40:27;11.23;;;8.68;;
45642;SDS011;31358;46.008;11.144;2023-06-10T02:42:53;11.85;;;8.25;;
45642;SDS011;31358;46.008;11.144;2023-06-10T02:45:18;12.15;;;8.77;;
45642;SDS011;31358;46.008;11.144;2023-06-10T02:47:44;12.52;;;8.55;;
45642;SDS011;31358;46.008;11.144;2023-06-10T02:50:10;10.73;;;8.38;;
45642;SDS011;31358;46.008;11.144;2023-06-10T02:52:36;10.70;;;8.13;;
45642;SDS011;31358;46.008;11.144;2023-06-10T02:55:02;11.45;;;8.82;;
45642;SDS011;31358;46.008;11.144;2023-06-10T02:57:28;13.60;;;8.50;;
45642;SDS011;31358;46.008;11.144;2023-06-10T02:59:53;11.35;;;7.38;;
45642;SDS011;31358;46.008;11.144;2023-06-10T03:02:19;11.77;;;8.38;;
45642;SDS011;31358;46.008;11.144;2023-06-10T03:04:45;10.57;;;7.85;;
45642;SDS011;31358;46.008;11.144;2023-06-10T03:07:11;9.95;;;7.40;;
45642;SDS011;31358;46.008;11.144;2023-06-10T03:09:37;10.77;;;7.93;;
45642;SDS011;31358;46.008;11.144;2023-06-10T03:12:03;10.85;;;7.90;;
45642;SDS011;31358;46.008;11.144;2023-06-10T03:14:30;12.38;;;9.20;;
45642;SDS011;31358;46.008;11.144;2023-06-10T03:16:55;15.43;;;8.68;;
45642;SDS011;31358;46.008;11.144;2023-06-10T03:19:21;15.52;;;9.02;;
45642;SDS011;31358;46.008;11.144;2023-06-10T03:21:49;13.93;;;8.90;;
45642;SDS011;31358;46.008;11.144;2023-06-10T03:24:19;10.35;;;7.38;;
45642;SDS011;31358;46.008;11.144;2023-06-10T03:26:45;10.52;;;7.65;;
45642;SDS011;31358;46.008;11.144;2023-06-10T03:29:11;10.50;;;7.38;;
45642;SDS011;31358;46.008;11.144;2023-06-10T03:31:36;9.82;;;7.50;;
45642;SDS011;31358;46.008;11.144;2023-06-10T03:34:03;11.25;;;7.90;;
45642;SDS011;31358;46.008;11.144;2023-06-10T03:36:29;11.35;;;7.32;;
45642;SDS011;31358;46.008;11.144;2023-06-10T03:38:55;10.65;;;8.25;;
45642;SDS011;31358;46.008;11.144;2023-06-10T03:41:21;16.70;;;7.25;;
45642;SDS011;31358;46.008;11.144;2023-06-10T03:43:47;9.18;;;7.07;;
45642;SDS011;31358;46.008;11.144;2023-06-10T03:46:13;14.40;;;7.32;;
45642;SDS011;31358;46.008;11.144;2023-06-10T03:48:39;11.80;;;7.75;;
45642;SDS011;31358;46.008;11.144;2023-06-10T03:51:06;11.80;;;7.75;;
45642;SDS011;31358;46.008;11.144;2023-06-10T03:53:32;12.70;;;7.07;;
45642;SDS011;31358;46.008;11.144;2023-06-10T03:55:57;19.45;;;7.57;;
45642;SDS011;31358;46.008;11.144;2023-06-10T03:58:23;15.02;;;7.50;;
45642;SDS011;31358;46.008;11.144;2023-06-10T04:00:49;17.52;;;7.97;;
45642;SDS011;31358;46.008;11.144;2023-06-10T04:03:14;9.70;;;7.45;;
45642;SDS011;31358;46.008;11.144;2023-06-10T04:05:40;9.20;;;6.78;;
45642;SDS011;31358;46.008;11.144;2023-06-10T04:08:07;9.43;;;7.05;;
45642;SDS011;31358;46.008;11.144;2023-06-10T04:10:33;9.88;;;7.30;;
45642;SDS011;31358;46.008;11.144;2023-06-10T04:12:58;9.77;;;6.75;;
45642;SDS011;31358;46.008;11.144;2023-06-10T04:15:24;8.50;;;6.30;;
45642;SDS011;31358;46.008;11.144;2023-06-10T04:17:50;10.05;;;6.47;;
45642;SDS011;31358;46.008;11.144;2023-06-10T04:20:16;10.38;;;6.75;;
45642;SDS011;31358;46.008;11.144;2023-06-10T04:22:41;10.48;;;6.20;;
45642;SDS011;31358;46.008;11.144;2023-06-10T04:25:08;11.18;;;6.65;;
45642;SDS011;31358;46.008;11.144;2023-06-10T04:27:34;9.77;;;6.65;;
45642;SDS011;31358;46.008;11.144;2023-06-10T04:30:00;8.63;;;6.57;;
45642;SDS011;31358;46.008;11.144;2023-06-10T04:32:25;9.70;;;5.57;;
45642;SDS011;31358;46.008;11.144;2023-06-10T04:34:51;7.97;;;5.72;;
45642;SDS011;31358;46.008;11.144;2023-06-10T04:37:17;10.40;;;6.88;;
45642;SDS011;31358;46.008;11.144;2023-06-10T04:39:43;8.88;;;6.78;;
45642;SDS011;31358;46.008;11.144;2023-06-10T04:42:08;9.13;;;6.47;;
45642;SDS011;31358;46.008;11.144;2023-06-10T04:44:34;10.20;;;6.45;;
45642;SDS011;31358;46.008;11.144;2023-06-10T04:47:00;10.10;;;6.78;;
45642;SDS011;31358;46.008;11.144;2023-06-10T04:49:26;9.13;;;6.05;;
45642;SDS011;31358;46.008;11.144;2023-06-10T04:51:51;9.07;;;5.97;;
45642;SDS011;31358;46.008;11.144;2023-06-10T04:54:17;8.98;;;6.40;;
45642;SDS011;31358;46.008;11.144;2023-06-10T04:56:42;9.88;;;7.75;;
45642;SDS011;31358;46.008;11.144;2023-06-10T04:59:08;9.40;;;7.28;;
45642;SDS011;31358;46.008;11.144;2023-06-10T05:01:34;12.55;;;8.15;;
45642;SDS011;31358;46.008;11.144;2023-06-10T05:03:59;11.25;;;8.55;;
45642;SDS011;31358;46.008;11.144;2023-06-10T05:06:25;9.88;;;7.68;;
45642;SDS011;31358;46.008;11.144;2023-06-10T05:08:50;9.65;;;6.85;;
45642;SDS011;31358;46.008;11.144;2023-06-10T05:11:16;11.63;;;8.13;;
45642;SDS011;31358;46.008;11.144;2023-06-10T05:13:42;16.30;;;7.95;;
45642;SDS011;31358;46.008;11.144;2023-06-10T05:16:09;11.02;;;8.82;;
45642;SDS011;31358;46.008;11.144;2023-06-10T05:18:34;10.77;;;8.07;;
45642;SDS011;31358;46.008;11.144;2023-06-10T05:21:00;10.18;;;7.95;;
45642;SDS011;31358;46.008;11.144;2023-06-10T05:23:27;10.70;;;7.95;;
45642;SDS011;31358;46.008;11.144;2023-06-10T05:25:53;9.18;;;6.93;;
45642;SDS011;31358;46.008;11.144;2023-06-10T05:28:19;8.90;;;7.50;;
45642;SDS011;31358;46.008;11.144;2023-06-10T05:30:45;10.43;;;7.78;;
45642;SDS011;31358;46.008;11.144;2023-06-10T05:33:11;13.07;;;6.95;;
45642;SDS011;31358;46.008;11.144;2023-06-10T05:35:36;8.82;;;7.10;;
45642;SDS011;31358;46.008;11.144;2023-06-10T05:38:02;10.68;;;7.45;;
45642;SDS011;31358;46.008;11.144;2023-06-10T05:40:28;11.05;;;6.80;;
45642;SDS011;31358;46.008;11.144;2023-06-10T05:42:53;10.07;;;6.90;;
45642;SDS011;31358;46.008;11.144;2023-06-10T05:45:19;10.20;;;6.07;;
45642;SDS011;31358;46.008;11.144;2023-06-10T05:47:45;8.35;;;5.85;;
45642;SDS011;31358;46.008;11.144;2023-06-10T05:50:10;8.07;;;5.85;;
45642;SDS011;31358;46.008;11.144;2023-06-10T05:52:36;8.88;;;5.40;;
45642;SDS011;31358;46.008;11.144;2023-06-10T05:55:02;6.68;;;5.00;;
45642;SDS011;31358;46.008;11.144;2023-06-10T05:57:28;16.85;;;5.97;;
45642;SDS011;31358;46.008;11.144;2023-06-10T05:59:54;9.48;;;5.70;;
45642;SDS011;31358;46.008;11.144;2023-06-10T06:02:20;10.00;;;7.72;;
45642;SDS011;31358;46.008;11.144;2023-06-10T06:04:45;15.57;;;9.27;;
45642;SDS011;31358;46.008;11.144;2023-06-10T06:07:11;13.57;;;10.43;;
45642;SDS011;31358;46.008;11.144;2023-06-10T06:09:37;15.38;;;11.45;;
45642;SDS011;31358;46.008;11.144;2023-06-10T06:12:02;15.88;;;11.65;;
45642;SDS011;31358;46.008;11.144;2023-06-10T06:14:30;13.98;;;11.48;;
45642;SDS011;31358;46.008;11.144;2023-06-10T06:16:57;17.08;;;12.05;;
45642;SDS011;31358;46.008;11.144;2023-06-10T06:19:22;13.10;;;10.57;;
45642;SDS011;31358;46.008;11.144;2023-06-10T06:21:48;14.82;;;10.88;;
45642;SDS011;31358;46.008;11.144;2023-06-10T06:24:14;13.80;;;9.90;;
45642;SDS011;31358;46.008;11.144;2023-06-10T06:26:41;12.45;;;9.60;;
45642;SDS011;31358;46.008;11.144;2023-06-10T06:29:06;13.85;;;10.93;;
45642;SDS011;31358;46.008;11.144;2023-06-10T06:31:32;12.65;;;9.80;;
45642;SDS011;31358;46.008;11.144;2023-06-10T06:33:58;14.60;;;10.63;;
45642;SDS011;31358;46.008;11.144;2023-06-10T06:36:24;13.55;;;10.90;;
45642;SDS011;31358;46.008;11.144;2023-06-10T06:38:49;13.82;;;10.57;;
45642;SDS011;31358;46.008;11.144;2023-06-10T06:41:15;12.68;;;10.55;;
45642;SDS011;31358;46.008;11.144;2023-06-10T06:43:40;18.65;;;10.25;;
45642;SDS011;31358;46.008;11.144;2023-06-10T06:46:08;13.95;;;9.77;;
45642;SDS011;31358;46.008;11.144;2023-06-10T06:48:33;14.13;;;11.02;;
45642;SDS011;31358;46.008;11.144;2023-06-10T06:51:00;14.32;;;10.90;;
45642;SDS011;31358;46.008;11.144;2023-06-10T06:53:25;16.38;;;10.52;;
45642;SDS011;31358;46.008;11.144;2023-06-10T06:55:51;16.92;;;10.82;;
45642;SDS011;31358;46.008;11.144;2023-06-10T06:58:17;15.73;;;11.07;;
45642;SDS011;31358;46.008;11.144;2023-06-10T07:00:42;14.50;;;11.20;;
45642;SDS011;31358;46.008;11.144;2023-06-10T07:03:08;15.65;;;11.63;;
45642;SDS011;31358;46.008;11.144;2023-06-10T07:05:34;15.65;;;10.60;;
45642;SDS011;31358;46.008;11.144;2023-06-10T07:07:59;13.93;;;11.40;;
45642;SDS011;31358;46.008;11.144;2023-06-10T07:10:25;14.35;;;11.50;;
45642;SDS011;31358;46.008;11.144;2023-06-10T07:12:51;20.27;;;10.45;;
45642;SDS011;31358;46.008;11.144;2023-06-10T07:15:17;15.68;;;11.23;;
45642;SDS011;31358;46.008;11.144;2023-06-10T07:17:43;14.88;;;10.48;;
45642;SDS011;31358;46.008;11.144;2023-06-10T07:20:09;16.40;;;10.10;;
45642;SDS011;31358;46.008;11.144;2023-06-10T07:22:35;16.90;;;10.75;;
45642;SDS011;31358;46.008;11.144;2023-06-10T07:25:01;11.57;;;9.65;;
45642;SDS011;31358;46.008;11.144;2023-06-10T07:27:27;15.60;;;11.38;;
45642;SDS011;31358;46.008;11.144;2023-06-10T07:29:53;14.68;;;11.38;;
45642;SDS011;31358;46.008;11.144;2023-06-10T07:32:19;13.20;;;10.63;;
45642;SDS011;31358;46.008;11.144;2023-06-10T07:34:48;14.30;;;10.77;;
45642;SDS011;31358;46.008;11.144;2023-06-10T07:37:15;16.20;;;12.40;;
45642;SDS011;31358;46.008;11.144;2023-06-10T07:39:41;14.88;;;11.60;;
45642;SDS011;31358;46.008;11.144;2023-06-10T07:42:08;13.40;;;10.90;;
45642;SDS011;31358;46.008;11.144;2023-06-10T07:44:34;14.75;;;10.95;;
45642;SDS011;31358;46.008;11.144;2023-06-10T07:46:59;14.23;;;11.85;;
45642;SDS011;31358;46.008;11.144;2023-06-10T07:49:25;15.23;;;10.95;;
45642;SDS011;31358;46.008;11.144;2023-06-10T07:51:51;13.32;;;11.02;;
45642;SDS011;31358;46.008;11.144;2023-06-10T07:54:18;16.20;;;10.88;;
45642;SDS011;31358;46.008;11.144;2023-06-10T07:56:44;15.50;;;10.90;;
45642;SDS011;31358;46.008;11.144;2023-06-10T07:59:10;15.48;;;10.63;;
45642;SDS011;31358;46.008;11.144;2023-06-10T08:01:35;15.02;;;10.48;;
45642;SDS011;31358;46.008;11.144;2023-06-10T08:04:03;14.93;;;10.40;;
45642;SDS011;31358;46.008;11.144;2023-06-10T08:06:29;15.85;;;11.32;;
45642;SDS011;31358;46.008;11.144;2023-06-10T08:08:54;15.30;;;10.23;;
45642;SDS011;31358;46.008;11.144;2023-06-10T08:11:20;12.38;;;9.38;;
45642;SDS011;31358;46.008;11.144;2023-06-10T08:13:46;13.52;;;9.73;;
45642;SDS011;31358;46.008;11.144;2023-06-10T08:16:11;14.57;;;10.30;;
45642;SDS011;31358;46.008;11.144;2023-06-10T08:18:37;13.93;;;9.77;;
45642;SDS011;31358;46.008;11.144;2023-06-10T08:21:03;15.35;;;11.35;;
45642;SDS011;31358;46.008;11.144;2023-06-10T08:23:28;23.27;;;11.88;;
45642;SDS011;31358;46.008;11.144;2023-06-10T08:25:54;16.45;;;12.07;;
45642;SDS011;31358;46.008;11.144;2023-06-10T08:28:20;19.92;;;12.82;;
45642;SDS011;31358;46.008;11.144;2023-06-10T08:30:45;15.23;;;12.82;;
45642;SDS011;31358;46.008;11.144;2023-06-10T08:33:11;13.65;;;11.65;;
45642;SDS011;31358;46.008;11.144;2023-06-10T08:35:37;14.63;;;11.40;;
45642;SDS011;31358;46.008;11.144;2023-06-10T08:38:02;13.15;;;10.55;;
45642;SDS011;31358;46.008;11.144;2023-06-10T08:40:28;17.92;;;12.63;;
45642;SDS011;31358;46.008;11.144;2023-06-10T08:45:30;19.73;;;13.10;;
45642;SDS011;31358;46.008;11.144;2023-06-10T08:47:57;17.58;;;13.32;;
45642;SDS011;31358;46.008;11.144;2023-06-10T08:50:24;19.88;;;16.30;;
45642;SDS011;31358;46.008;11.144;2023-06-10T08:52:53;20.42;;;16.08;;
45642;SDS011;31358;46.008;11.144;2023-06-10T08:55:43;25.00;;;16.88;;
45642;SDS011;31358;46.008;11.144;2023-06-10T08:58:08;26.83;;;16.77;;
45642;SDS011;31358;46.008;11.144;2023-06-10T09:00:35;25.35;;;18.48;;
45642;SDS011;31358;46.008;11.144;2023-06-10T09:03:01;20.75;;;16.13;;
45642;SDS011;31358;46.008;11.144;2023-06-10T09:05:28;19.83;;;14.15;;
45642;SDS011;31358;46.008;11.144;2023-06-10T09:07:54;18.80;;;15.77;;
45642;SDS011;31358;46.008;11.144;2023-06-10T09:10:22;19.25;;;15.13;;
45642;SDS011;31358;46.008;11.144;2023-06-10T09:12:48;19.77;;;15.65;;
45642;SDS011;31358;46.008;11.144;2023-06-10T09:15:13;19.88;;;15.60;;
45642;SDS011;31358;46.008;11.144;2023-06-10T09:17:39;21.13;;;16.92;;
45642;SDS011;31358;46.008;11.144;2023-06-10T09:20:07;23.10;;;16.25;;
45642;SDS011;31358;46.008;11.144;2023-06-10T09:22:33;23.08;;;16.65;;
45642;SDS011;31358;46.008;11.144;2023-06-10T09:27:33;19.50;;;15.77;;
45642;SDS011;31358;46.008;11.144;2023-06-10T09:30:25;19.90;;;16.02;;
45642;SDS011;31358;46.008;11.144;2023-06-10T09:32:59;21.63;;;16.45;;
45642;SDS011;31358;46.008;11.144;2023-06-10T09:35:28;22.15;;;16.35;;
45642;SDS011;31358;46.008;11.144;2023-06-10T09:37:55;21.10;;;17.83;;
45642;SDS011;31358;46.008;11.144;2023-06-10T09:40:22;23.65;;;16.95;;
45642;SDS011;31358;46.008;11.144;2023-06-10T09:43:09;21.73;;;16.08;;
45642;SDS011;31358;46.008;11.144;2023-06-10T09:45:36;19.42;;;14.73;;
45642;SDS011;31358;46.008;11.144;2023-06-10T09:48:02;20.10;;;14.93;;
45642;SDS011;31358;46.008;11.144;2023-06-10T09:50:27;22.95;;;16.42;;
45642;SDS011;31358;46.008;11.144;2023-06-10T09:52:57;20.92;;;15.27;;
45642;SDS011;31358;46.008;11.144;2023-06-10T09:55:23;20.80;;;15.63;;
45642;SDS011;31358;46.008;11.144;2023-06-10T09:57:49;17.45;;;15.57;;
45642;SDS011;31358;46.008;11.144;2023-06-10T10:00:18;16.92;;;13.82;;
45642;SDS011;31358;46.008;11.144;2023-06-10T10:02:48;17.85;;;14.02;;
45642;SDS011;31358;46.008;11.144;2023-06-10T10:05:15;21.95;;;15.00;;
45642;SDS011;31358;46.008;11.144;2023-06-10T10:07:42;16.38;;;14.02;;
45642;SDS011;31358;46.008;11.144;2023-06-10T10:10:09;19.33;;;16.48;;
45642;SDS011;31358;46.008;11.144;2023-06-10T10:12:36;20.02;;;16.17;;
45642;SDS011;31358;46.008;11.144;2023-06-10T10:15:03;22.50;;;15.48;;
45642;SDS011;31358;46.008;11.144;2023-06-10T10:17:33;20.73;;;16.10;;
45642;SDS011;31358;46.008;11.144;2023-06-10T10:20:03;20.05;;;15.32;;
45642;SDS011;31358;46.008;11.144;2023-06-10T10:22:40;16.52;;;13.18;;
45642;SDS011;31358;46.008;11.144;2023-06-10T10:25:10;23.27;;;13.85;;
45642;SDS011;31358;46.008;11.144;2023-06-10T10:30:27;18.05;;;14.00;;
45642;SDS011;31358;46.008;11.144;2023-06-10T10:35:24;17.88;;;14.73;;
45642;SDS011;31358;46.008;11.144;2023-06-10T10:37:54;17.15;;;13.65;;
45642;SDS011;31358;46.008;11.144;2023-06-10T10:40:20;19.02;;;15.10;;
45642;SDS011;31358;46.008;11.144;2023-06-10T10:42:47;16.45;;;13.63;;
45642;SDS011;31358;46.008;11.144;2023-06-10T10:45:13;21.98;;;14.20;;
45642;SDS011;31358;46.008;11.144;2023-06-10T10:47:39;21.35;;;14.45;;
45642;SDS011;31358;46.008;11.144;2023-06-10T10:50:14;19.17;;;14.63;;
45642;SDS011;31358;46.008;11.144;2023-06-10T10:52:52;15.15;;;12.35;;
45642;SDS011;31358;46.008;11.144;2023-06-10T10:55:18;15.82;;;11.85;;
45642;SDS011;31358;46.008;11.144;2023-06-10T10:57:44;14.32;;;11.73;;
45642;SDS011;31358;46.008;11.144;2023-06-10T11:00:29;14.32;;;10.55;;
45642;SDS011;31358;46.008;11.144;2023-06-10T11:03:05;14.00;;;11.70;;
45642;SDS011;31358;46.008;11.144;2023-06-10T11:05:36;15.00;;;11.43;;
45642;SDS011;31358;46.008;11.144;2023-06-10T11:08:02;16.17;;;11.18;;
45642;SDS011;31358;46.008;11.144;2023-06-10T11:10:32;14.77;;;10.85;;
45642;SDS011;31358;46.008;11.144;2023-06-10T11:13:06;13.05;;;10.05;;
45642;SDS011;31358;46.008;11.144;2023-06-10T11:15:32;12.82;;;10.40;;
45642;SDS011;31358;46.008;11.144;2023-06-10T11:18:15;18.75;;;12.02;;
45642;SDS011;31358;46.008;11.144;2023-06-10T11:26:09;13.82;;;10.40;;
45642;SDS011;31358;46.008;11.144;2023-06-10T11:28:42;14.15;;;11.13;;
45642;SDS011;31358;46.008;11.144;2023-06-10T11:31:25;13.75;;;11.52;;
45642;SDS011;31358;46.008;11.144;2023-06-10T11:33:55;14.52;;;11.27;;
45642;SDS011;31358;46.008;11.144;2023-06-10T11:36:22;17.40;;;12.68;;
45642;SDS011;31358;46.008;11.144;2023-06-10T11:38:50;16.30;;;12.65;;
45642;SDS011;31358;46.008;11.144;2023-06-10T11:41:20;15.60;;;12.63;;
45642;SDS011;31358;46.008;11.144;2023-06-10T11:43:46;12.23;;;10.65;;
45642;SDS011;31358;46.008;11.144;2023-06-10T11:46:12;12.27;;;10.15;;
45642;SDS011;31358;46.008;11.144;2023-06-10T11:48:39;13.27;;;10.18;;
45642;SDS011;31358;46.008;11.144;2023-06-10T11:51:13;15.07;;;10.48;;
45642;SDS011;31358;46.008;11.144;2023-06-10T11:53:39;16.27;;;10.48;;
45642;SDS011;31358;46.008;11.144;2023-06-10T11:56:05;15.82;;;10.93;;
45642;SDS011;31358;46.008;11.144;2023-06-10T11:58:30;12.70;;;9.13;;
45642;SDS011;31358;46.008;11.144;2023-06-10T12:00:56;11.43;;;9.80;;
45642;SDS011;31358;46.008;11.144;2023-06-10T12:03:23;10.57;;;8.57;;
45642;SDS011;31358;46.008;11.144;2023-06-10T12:05:57;12.02;;;9.50;;
45642;SDS011;31358;46.008;11.144;2023-06-10T12:08:24;11.57;;;9.15;;
45642;SDS011;31358;46.008;11.144;2023-06-10T12:10:50;10.73;;;8.40;;
45642;SDS011;31358;46.008;11.144;2023-06-10T12:13:16;10.77;;;8.77;;
45642;SDS011;31358;46.008;11.144;2023-06-10T12:15:45;12.38;;;9.27;;
45642;SDS011;31358;46.008;11.144;2023-06-10T12:18:18;11.98;;;8.77;;
45642;SDS011;31358;46.008;11.144;2023-06-10T12:20:45;12.80;;;9.23;;
45642;SDS011;31358;46.008;11.144;2023-06-10T12:23:11;10.95;;;9.02;;
45642;SDS011;31358;46.008;11.144;2023-06-10T12:25:37;11.77;;;8.23;;
45642;SDS011;31358;46.008;11.144;2023-06-10T12:28:04;12.30;;;8.25;;
45642;SDS011;31358;46.008;11.144;2023-06-10T12:30:32;10.68;;;7.82;;
45642;SDS011;31358;46.008;11.144;2023-06-10T12:32:57;9.82;;;7.63;;
45642;SDS011;31358;46.008;11.144;2023-06-10T12:35:24;8.90;;;7.07;;
45642;SDS011;31358;46.008;11.144;2023-06-10T12:38:04;11.00;;;7.32;;
45642;SDS011;31358;46.008;11.144;2023-06-10T12:40:34;10.70;;;7.43;;
45642;SDS011;31358;46.008;11.144;2023-06-10T12:43:01;10.50;;;7.65;;
45642;SDS011;31358;46.008;11.144;2023-06-10T12:45:31;11.13;;;7.60;;
45642;SDS011;31358;46.008;11.144;2023-06-10T12:50:53;11.43;;;7.28;;
45642;SDS011;31358;46.008;11.144;2023-06-10T12:53:21;7.88;;;6.45;;
45642;SDS011;31358;46.008;11.144;2023-06-10T12:55:48;8.82;;;5.88;;
45642;SDS011;31358;46.008;11.144;2023-06-10T12:58:14;13.10;;;6.50;;
45642;SDS011;31358;46.008;11.144;2023-06-10T13:00:40;12.10;;;7.60;;
45642;SDS011;31358;46.008;11.144;2023-06-10T13:03:07;8.10;;;6.55;;
45642;SDS011;31358;46.008;11.144;2023-06-10T13:05:35;7.95;;;6.57;;
45642;SDS011;31358;46.008;11.144;2023-06-10T13:08:03;9.02;;;6.70;;
45642;SDS011;31358;46.008;11.144;2023-06-10T13:10:30;7.70;;;5.68;;
45642;SDS011;31358;46.008;11.144;2023-06-10T13:12:55;7.43;;;5.60;;
45642;SDS011;31358;46.008;11.144;2023-06-10T13:15:21;9.80;;;6.45;;
45642;SDS011;31358;46.008;11.144;2023-06-10T13:17:47;9.50;;;6.47;;
45642;SDS011;31358;46.008;11.144;2023-06-10T13:20:15;8.48;;;5.90;;
45642;SDS011;31358;46.008;11.144;2023-06-10T13:22:41;6.53;;;5.15;;
45642;SDS011;31358;46.008;11.144;2023-06-10T13:25:07;9.55;;;6.07;;
45642;SDS011;31358;46.008;11.144;2023-06-10T13:27:36;9.18;;;5.68;;
45642;SDS011;31358;46.008;11.144;2023-06-10T13:30:07;18.48;;;6.70;;
45642;SDS011;31358;46.008;11.144;2023-06-10T13:32:34;8.63;;;6.13;;
45642;SDS011;31358;46.008;11.144;2023-06-10T13:35:00;7.88;;;6.25;;
45642;SDS011;31358;46.008;11.144;2023-06-10T13:37:26;10.93;;;6.22;;
45642;SDS011;31358;46.008;11.144;2023-06-10T13:39:52;9.23;;;6.18;;
45642;SDS011;31358;46.008;11.144;2023-06-10T13:42:18;9.45;;;5.60;;
45642;SDS011;31358;46.008;11.144;2023-06-10T13:44:44;9.02;;;5.38;;
45642;SDS011;31358;46.008;11.144;2023-06-10T13:47:09;8.35;;;4.82;;
45642;SDS011;31358;46.008;11.144;2023-06-10T13:49:35;7.55;;;5.60;;
45642;SDS011;31358;46.008;11.144;2023-06-10T13:52:01;7.10;;;5.07;;
45642;SDS011;31358;46.008;11.144;2023-06-10T13:54:27;9.30;;;5.20;;
45642;SDS011;31358;46.008;11.144;2023-06-10T13:56:53;7.22;;;5.53;;
45642;SDS011;31358;46.008;11.144;2023-06-10T13:59:19;6.38;;;4.30;;
45642;SDS011;31358;46.008;11.144;2023-06-10T14:01:46;7.60;;;5.82;;
45642;SDS011;31358;46.008;11.144;2023-06-10T14:04:11;7.60;;;5.38;;
45642;SDS011;31358;46.008;11.144;2023-06-10T14:06:37;6.15;;;4.45;;
45642;SDS011;31358;46.008;11.144;2023-06-10T14:09:03;6.00;;;4.78;;
45642;SDS011;31358;46.008;11.144;2023-06-10T14:11:29;8.30;;;5.40;;
45642;SDS011;31358;46.008;11.144;2023-06-10T14:13:54;7.95;;;5.30;;
45642;SDS011;31358;46.008;11.144;2023-06-10T14:16:22;8.07;;;5.85;;
45642;SDS011;31358;46.008;11.144;2023-06-10T14:18:48;7.53;;;4.65;;
45642;SDS011;31358;46.008;11.144;2023-06-10T14:21:15;6.32;;;4.93;;
45642;SDS011;31358;46.008;11.144;2023-06-10T14:23:41;9.25;;;5.60;;
45642;SDS011;31358;46.008;11.144;2023-06-10T14:26:08;11.23;;;5.35;;
45642;SDS011;31358;46.008;11.144;2023-06-10T14:28:34;6.55;;;4.65;;
45642;SDS011;31358;46.008;11.144;2023-06-10T14:31:00;7.45;;;4.95;;
45642;SDS011;31358;46.008;11.144;2023-06-10T14:33:26;7.10;;;4.93;;
45642;SDS011;31358;46.008;11.144;2023-06-10T14:35:52;10.38;;;4.80;;
45642;SDS011;31358;46.008;11.144;2023-06-10T14:38:17;9.68;;;5.25;;
45642;SDS011;31358;46.008;11.144;2023-06-10T14:40:43;6.93;;;5.10;;
45642;SDS011;31358;46.008;11.144;2023-06-10T14:43:09;8.60;;;4.97;;